Kaneohe Bay MCAS (Marion E. Carl Field) Airport Kaneohe US
ICAO: PHNG
IATA:
Category: Medium
Scheduled Services:

Elevation: 24 ft
TransAlt. 18000 ft.

Airport Communications:
APP/DEP:125
ATIS:28.45
CLNC DEL:29.47
CTAF:120.7
GND:38.28
PMSV METRO:34.46
PTD:30.72
TWR:120.7

PHNG Zoom In..

Runways:

(A) RW 04 length 7771 ft width 200 ft
---- / hdg 41

(B) RW 22 length 7771 ft width 200 ft
---- / hdg 221

Location; PHNG
Day. 25 / Time. 00.57 Zulu
* Altimeter: 29.97
* Temperature: 27° c. 80.6°f.
* Wind from: 080° Speed 10 kn with Gusts up to 17 kn.
Dewpoint: 20° c.
Visibility: 10 Statute Miles.
Clouds: Few 2600 ft.
Clouds: Overcast 6500 ft.

PHNG 250057Z 08010G17KT 10SM FEW026 OVC065 27/20 A2997 RMK AO2 RAB36E39 SLP143 P0000 T02670200 $

Going to: --> -->


Wind From 080°
Speed 10 kn.

 
 
jpsmedia worldairports.se 2020   terms of use